Bloom, Kansas
Current Conditions -  °F | °C
As of 11:20 AM on Thursday 18 Dec 2014 (Local Time) from KDDC Reporting Station
Haze Haze  
Wind Chill: 24°   Ceiling: 300
Heat Index: 30°   Visibility: 3mi
Dew Point: 28°   Wind: 6mph
Humidity: 92%   Direction: 350°N
Pressure: 30.17"   Gusts: NA
Location:  37.3916°N, 99.8236°W
Report Text: KDDC 181720Z AUTO 35005KT 3SM BR BKN003 OVC008 M01/M02 A3017 RMK AO2 T10111022
Loading
Personal Weather Stations






























Interactive Weather Map New forecast layout! Learn more

10-Day Weather Forecast

Advertisements
Track Severe Weather on mobile